createdAt,value
2017-07-03T00:01:29.147Z,12.90
2017-07-03T00:03:56.608Z,14.50
2017-07-03T00:06:24.058Z,18.50
2017-07-03T00:08:51.511Z,12.80
2017-07-03T00:11:18.964Z,14.77
2017-07-03T00:13:46.424Z,13.07
2017-07-03T00:16:13.879Z,19.20
2017-07-03T00:18:41.347Z,15.77
2017-07-03T00:21:08.811Z,11.53
2017-07-03T00:23:36.254Z,12.47
2017-07-03T00:26:03.707Z,16.40
2017-07-03T00:28:31.158Z,15.20
2017-07-03T00:30:58.619Z,13.47
2017-07-03T00:33:26.077Z,14.10
2017-07-03T00:35:53.541Z,12.00
2017-07-03T00:38:20.991Z,13.20
2017-07-03T00:40:48.447Z,12.87
2017-07-03T00:43:15.899Z,16.60
2017-07-03T00:45:43.363Z,16.40
2017-07-03T00:48:10.813Z,11.80
2017-07-03T00:50:38.270Z,12.13
2017-07-03T00:53:05.711Z,12.80
2017-07-03T00:55:33.152Z,12.40
2017-07-03T00:58:01.375Z,11.67
2017-07-03T01:00:28.819Z,11.00
2017-07-03T01:02:56.279Z,12.93
2017-07-03T01:05:23.737Z,13.47
2017-07-03T01:07:51.207Z,15.33
2017-07-03T01:10:18.647Z,13.80
2017-07-03T01:12:46.107Z,11.90
2017-07-03T01:15:13.551Z,16.30
2017-07-03T01:17:41.019Z,13.93
2017-07-03T01:20:08.474Z,13.40
2017-07-03T01:22:35.941Z,18.87
2017-07-03T01:25:03.384Z,13.00
2017-07-03T01:27:30.847Z,21.03
2017-07-03T01:29:58.290Z,16.13
2017-07-03T01:32:25.747Z,16.40
2017-07-03T01:34:53.208Z,16.40
2017-07-03T01:37:20.659Z,16.57
2017-07-03T01:39:48.115Z,16.17
2017-07-03T01:42:15.559Z,11.83
2017-07-03T01:44:43.021Z,18.00
2017-07-03T01:47:10.479Z,14.57
2017-07-03T01:49:37.939Z,13.90
2017-07-03T01:52:05.388Z,19.70
2017-07-03T01:54:32.843Z,18.83
2017-07-03T01:57:00.284Z,11.00
2017-07-03T01:59:28.507Z,11.83
2017-07-03T02:01:55.952Z,13.70
2017-07-03T02:04:23.416Z,17.47
2017-07-03T02:06:50.875Z,18.13
2017-07-03T02:09:18.336Z,16.33
2017-07-03T02:11:45.786Z,15.10
2017-07-03T02:14:13.231Z,18.07
2017-07-03T02:16:40.683Z,17.67
2017-07-03T02:19:08.135Z,12.93
2017-07-03T02:21:35.601Z,14.73
2017-07-03T02:24:03.036Z,13.93
2017-07-03T02:26:31.263Z,15.40
2017-07-03T02:28:58.704Z,13.37
2017-07-03T02:31:26.147Z,12.10
2017-07-03T02:33:53.604Z,13.57
2017-07-03T02:36:21.057Z,14.20
2017-07-03T02:38:48.511Z,15.87
2017-07-03T02:41:15.959Z,28.23
2017-07-03T02:43:43.413Z,16.73
2017-07-03T02:46:11.619Z,10.30
2017-07-03T02:48:39.079Z,12.93
2017-07-03T02:51:07.522Z,11.90
2017-07-03T02:53:35.764Z,12.50
2017-07-03T02:56:06.230Z,21.57
2017-07-03T02:58:33.687Z,13.77
2017-07-03T03:01:01.135Z,16.17
2017-07-03T03:03:29.362Z,17.30
2017-07-03T03:05:56.803Z,12.90
2017-07-03T03:08:24.259Z,12.70
2017-07-03T03:10:51.717Z,15.77
2017-07-03T03:13:19.174Z,19.37
2017-07-03T03:15:46.616Z,17.33
2017-07-03T03:18:14.074Z,13.93
2017-07-03T03:20:41.532Z,18.47
2017-07-03T03:23:08.978Z,16.57
2017-07-03T03:25:36.436Z,18.10
2017-07-03T03:28:03.885Z,16.27
2017-07-03T03:30:32.107Z,18.90
2017-07-03T03:32:59.548Z,18.27
2017-07-03T03:35:27.009Z,19.50
2017-07-03T03:37:54.451Z,18.30
2017-07-03T03:40:21.920Z,15.03
2017-07-03T03:42:49.404Z,18.93
2017-07-03T03:45:16.883Z,12.90
2017-07-03T03:47:45.159Z,19.40
2017-07-03T03:50:12.591Z,17.40
2017-07-03T03:52:40.052Z,18.00
2017-07-03T03:55:07.491Z,13.80
2017-07-03T03:57:34.951Z,16.87
2017-07-03T04:00:02.423Z,12.77
2017-07-03T04:02:29.978Z,15.93
2017-07-03T04:04:57.540Z,16.97
2017-07-03T04:07:24.996Z,23.43
2017-07-03T04:09:52.443Z,20.13
2017-07-03T04:12:19.903Z,18.10
2017-07-03T04:14:47.360Z,15.77
2017-07-03T04:17:14.819Z,15.43
2017-07-03T04:19:42.264Z,15.13
2017-07-03T04:22:09.831Z,14.50
2017-07-03T04:24:37.283Z,13.33
2017-07-03T04:27:04.732Z,15.47
2017-07-03T04:29:32.215Z,15.90
2017-07-03T04:31:59.780Z,19.07
2017-07-03T04:34:27.251Z,18.77
2017-07-03T04:36:54.779Z,16.57
2017-07-03T04:41:53.570Z,14.87
2017-07-03T04:44:21.035Z,14.53
2017-07-03T04:46:48.483Z,21.43
2017-07-03T04:49:15.940Z,15.83
2017-07-03T04:51:43.400Z,13.50
2017-07-03T04:54:10.847Z,15.33
2017-07-03T04:56:38.300Z,15.63
2017-07-03T04:59:05.735Z,12.90
2017-07-03T05:01:33.196Z,9.10
2017-07-03T05:04:00.639Z,9.83
2017-07-03T05:06:28.088Z,11.10
2017-07-03T05:08:56.296Z,10.13
2017-07-03T05:11:23.747Z,11.43
2017-07-03T05:13:51.244Z,8.03
2017-07-03T05:16:18.715Z,8.17
2017-07-03T05:18:46.264Z,15.10
2017-07-03T05:21:13.702Z,7.67
2017-07-03T05:23:41.150Z,7.33
2017-07-03T05:26:08.596Z,11.90
2017-07-03T05:28:36.064Z,12.10
2017-07-03T05:31:03.503Z,9.67
2017-07-03T05:33:30.968Z,8.10
2017-07-03T05:35:58.468Z,10.90
2017-07-03T05:38:25.924Z,6.77
2017-07-03T05:40:53.363Z,6.23
2017-07-03T05:43:26.591Z,7.30
2017-07-03T05:45:54.033Z,8.63
2017-07-03T05:48:21.480Z,8.40
2017-07-03T05:50:48.920Z,8.93
2017-07-03T05:53:16.380Z,13.23
2017-07-03T05:55:43.830Z,6.67
2017-07-03T05:58:11.272Z,11.10
2017-07-03T06:00:38.727Z,12.57
2017-07-03T06:03:06.163Z,12.90
2017-07-03T06:05:33.628Z,10.47
2017-07-03T06:08:01.067Z,9.00
2017-07-03T06:10:29.291Z,8.20
2017-07-03T06:12:56.731Z,9.70
2017-07-03T06:15:24.193Z,9.33
2017-07-03T06:17:51.633Z,11.07
2017-07-03T06:20:19.083Z,8.13
2017-07-03T06:22:46.516Z,6.63
2017-07-03T06:25:13.975Z,10.83
2017-07-03T06:27:41.416Z,10.93
2017-07-03T06:30:08.855Z,15.00
2017-07-03T06:32:36.305Z,7.90
2017-07-03T06:35:03.752Z,11.50
2017-07-03T06:37:31.220Z,8.47
2017-07-03T06:39:58.665Z,9.80
2017-07-03T06:42:26.127Z,9.10
2017-07-03T06:44:53.580Z,8.47
2017-07-03T06:47:21.036Z,10.40
2017-07-03T06:49:48.483Z,13.07
2017-07-03T06:52:15.950Z,15.20
2017-07-03T06:54:43.408Z,11.03
2017-07-03T06:57:10.864Z,7.73
2017-07-03T06:59:38.337Z,6.57
2017-07-03T07:02:05.783Z,6.97
2017-07-03T07:04:33.248Z,10.60
2017-07-03T07:07:00.691Z,5.97
2017-07-03T07:09:28.152Z,9.30
2017-07-03T07:11:55.604Z,12.63
2017-07-03T07:14:23.072Z,8.73
2017-07-03T07:16:50.504Z,9.50
2017-07-03T07:19:17.964Z,13.00
2017-07-03T07:21:45.404Z,11.90
2017-07-03T07:24:12.863Z,11.33
2017-07-03T07:26:40.306Z,6.50
2017-07-03T07:29:08.537Z,9.63
2017-07-03T07:31:35.991Z,7.90
2017-07-03T07:34:03.443Z,8.60
2017-07-03T07:36:30.889Z,13.63
2017-07-03T07:38:58.355Z,6.80
2017-07-03T07:41:25.811Z,8.67
2017-07-03T07:43:53.264Z,7.93
2017-07-03T07:46:20.719Z,6.80
2017-07-03T07:48:48.163Z,5.97
2017-07-03T07:51:15.612Z,8.03
2017-07-03T07:53:43.060Z,5.20
2017-07-03T07:56:11.287Z,5.20
2017-07-03T07:58:38.733Z,6.07
2017-07-03T08:01:06.208Z,6.17
2017-07-03T08:03:33.633Z,6.47
2017-07-03T08:06:01.091Z,7.20
2017-07-03T08:08:28.528Z,8.53
2017-07-03T08:10:55.989Z,6.27
2017-07-03T08:13:24.192Z,8.07
2017-07-03T08:15:51.654Z,4.83
2017-07-03T08:18:19.093Z,4.53
2017-07-03T08:20:46.531Z,8.20
2017-07-03T08:23:13.987Z,5.80
2017-07-03T08:25:41.428Z,6.90
2017-07-03T08:28:09.651Z,4.30
2017-07-03T08:30:37.099Z,4.43
2017-07-03T08:33:04.551Z,7.47
2017-07-03T08:35:31.991Z,8.10
2017-07-03T08:37:59.452Z,5.93
2017-07-03T08:40:26.887Z,4.97
2017-07-03T08:42:55.117Z,5.23
2017-07-03T08:45:22.555Z,7.13
2017-07-03T08:47:50.010Z,4.43
2017-07-03T08:50:17.457Z,6.47
2017-07-03T08:52:44.922Z,8.30
2017-07-03T08:55:12.372Z,4.80
2017-07-03T08:57:39.815Z,5.70
2017-07-03T09:00:07.269Z,13.63
2017-07-03T09:02:34.707Z,5.50
2017-07-03T09:05:02.928Z,3.60
2017-07-03T09:07:30.382Z,4.70
2017-07-03T09:09:57.838Z,4.20
2017-07-03T09:12:25.284Z,5.23
2017-07-03T09:14:52.735Z,3.63
2017-07-03T09:17:20.183Z,3.50
2017-07-03T09:19:47.645Z,5.97
2017-07-03T09:22:19.559Z,5.13
2017-07-03T09:24:47.187Z,4.60
2017-07-03T09:27:14.627Z,3.30
2017-07-03T09:29:42.090Z,3.20
2017-07-03T09:32:09.532Z,3.07
2017-07-03T09:34:36.969Z,2.30
2017-07-03T09:37:05.189Z,4.03
2017-07-03T09:39:34.127Z,2.90
2017-07-03T09:42:02.919Z,1.87
2017-07-03T09:44:31.964Z,2.20
2017-07-03T09:46:59.421Z,5.00
2017-07-03T09:49:48.213Z,3.20
2017-07-03T09:52:15.667Z,3.53
2017-07-03T09:54:43.120Z,2.60
2017-07-03T09:57:10.572Z,2.20
2017-07-03T09:59:38.018Z,5.20
2017-07-03T10:02:05.468Z,2.90
2017-07-03T10:04:32.919Z,2.23
2017-07-03T10:10:05.456Z,2.73
2017-07-03T10:12:32.907Z,1.67
2017-07-03T10:15:00.361Z,3.20
2017-07-03T10:17:27.824Z,2.03
2017-07-03T10:19:55.264Z,3.37
2017-07-03T10:22:22.723Z,2.77
2017-07-03T10:24:50.173Z,1.67
2017-07-03T10:27:17.625Z,3.00
2017-07-03T10:29:45.084Z,4.83
2017-07-03T10:32:12.532Z,3.20
2017-07-03T10:34:39.995Z,1.70
2017-07-03T10:37:07.434Z,2.03
2017-07-03T10:39:34.896Z,3.03
2017-07-03T10:42:02.349Z,2.00
2017-07-03T10:44:29.815Z,2.00
2017-07-03T10:46:57.281Z,2.90
2017-07-03T10:49:24.733Z,2.47
2017-07-03T10:51:52.187Z,3.70
2017-07-03T10:54:19.638Z,2.73
2017-07-03T10:56:47.098Z,1.80
2017-07-03T10:59:14.534Z,2.33
2017-07-03T11:01:42.003Z,1.70
2017-07-03T11:04:09.440Z,1.43
2017-07-03T11:06:36.891Z,3.60
2017-07-03T11:09:05.099Z,1.20
2017-07-03T11:11:32.553Z,2.13
2017-07-03T11:14:00.004Z,2.30
2017-07-03T11:16:27.456Z,7.40
2017-07-03T11:18:54.901Z,1.90
2017-07-03T11:21:22.341Z,2.83
2017-07-03T11:23:50.560Z,1.70
2017-07-03T11:26:18.007Z,2.73
2017-07-03T11:28:45.451Z,1.67
2017-07-03T11:31:12.891Z,3.63
2017-07-03T11:33:40.345Z,1.90
2017-07-03T11:36:07.788Z,2.43
2017-07-03T11:38:35.240Z,7.60
2017-07-03T11:41:02.684Z,2.97
2017-07-03T11:43:30.135Z,2.40
2017-07-03T11:45:57.576Z,5.20
2017-07-03T11:48:25.048Z,1.50
2017-07-03T11:50:52.500Z,2.40
2017-07-03T11:56:13.235Z,2.27
2017-07-03T11:58:40.711Z,1.50
2017-07-03T12:01:08.147Z,2.23
2017-07-03T12:03:35.600Z,1.43
2017-07-03T12:06:03.057Z,2.20
2017-07-03T12:08:30.500Z,1.17
2017-07-03T12:10:57.958Z,1.43
2017-07-03T12:13:25.409Z,2.40
2017-07-03T12:15:52.860Z,1.97
2017-07-03T12:18:20.312Z,1.50
2017-07-03T12:20:47.771Z,1.80
2017-07-03T12:23:15.224Z,1.43
2017-07-03T12:25:42.680Z,1.63
2017-07-03T12:28:10.120Z,2.93
2017-07-03T12:30:37.576Z,1.73
2017-07-03T12:33:05.016Z,4.23
2017-07-03T12:35:32.470Z,1.57
2017-07-03T12:37:59.916Z,1.87
2017-07-03T12:40:27.367Z,1.77
2017-07-03T12:42:54.818Z,1.93
2017-07-03T12:45:22.291Z,1.50
2017-07-03T12:47:49.736Z,1.50
2017-07-03T12:50:17.176Z,1.87
2017-07-03T12:53:01.512Z,1.77
2017-07-03T12:55:28.960Z,2.60
2017-07-03T12:57:56.422Z,1.50
2017-07-03T13:00:23.876Z,1.40
2017-07-03T13:02:51.332Z,1.47
2017-07-03T13:05:18.776Z,2.43
2017-07-03T13:07:46.223Z,2.50
2017-07-03T13:10:13.667Z,1.40
2017-07-03T13:12:41.346Z,1.43
2017-07-03T13:15:08.779Z,1.70
2017-07-03T13:17:36.237Z,1.60
2017-07-03T13:20:03.697Z,1.47
2017-07-03T13:22:31.151Z,1.40
2017-07-03T13:24:59.383Z,1.40
2017-07-03T13:27:26.843Z,1.80
2017-07-03T13:29:54.299Z,1.40
2017-07-03T13:32:21.758Z,1.50
2017-07-03T13:34:49.219Z,1.20
2017-07-03T13:37:16.664Z,1.67
2017-07-03T13:39:44.124Z,1.63
2017-07-03T13:42:11.557Z,1.63
2017-07-03T13:44:39.019Z,1.50
2017-07-03T13:47:06.460Z,2.10
2017-07-03T13:49:33.912Z,3.03
2017-07-03T13:55:11.367Z,1.60
2017-07-03T13:57:38.811Z,2.13
2017-07-03T14:00:06.277Z,3.17
2017-07-03T14:02:33.719Z,1.90
2017-07-03T14:05:01.172Z,1.80
2017-07-03T14:07:28.613Z,1.87
2017-07-03T14:09:56.072Z,1.57
2017-07-03T14:12:23.516Z,4.30
2017-07-03T14:14:50.972Z,1.37
2017-07-03T14:17:18.412Z,1.80
2017-07-03T14:19:46.632Z,1.93
2017-07-03T14:22:14.085Z,1.77
2017-07-03T14:24:41.542Z,1.80
2017-07-03T14:27:09.003Z,1.73
2017-07-03T14:29:36.456Z,1.60
2017-07-03T14:32:03.896Z,2.07
2017-07-03T14:34:31.348Z,3.47
2017-07-03T14:36:58.796Z,2.70
2017-07-03T14:39:27.017Z,1.80
2017-07-03T14:41:54.468Z,1.90
2017-07-03T14:44:21.963Z,2.37
2017-07-03T14:46:49.409Z,1.90
2017-07-03T14:49:16.850Z,1.90
2017-07-03T14:52:07.459Z,2.30
2017-07-03T14:54:34.901Z,2.17
2017-07-03T14:57:02.352Z,2.10
2017-07-03T14:59:29.820Z,1.93
2017-07-03T15:01:57.275Z,2.40
2017-07-03T15:04:24.723Z,2.30
2017-07-03T15:06:52.179Z,2.37
2017-07-03T15:09:19.629Z,2.20
2017-07-03T15:11:47.078Z,2.10
2017-07-03T15:14:14.520Z,2.10
2017-07-03T15:16:41.981Z,2.00
2017-07-03T15:19:09.417Z,4.13
2017-07-03T15:21:37.639Z,1.77
2017-07-03T15:24:05.084Z,2.10
2017-07-03T15:26:32.559Z,2.10
2017-07-03T15:28:59.999Z,2.23
2017-07-03T15:31:27.442Z,4.03
2017-07-03T15:33:54.899Z,2.37
2017-07-03T15:36:22.399Z,1.93
2017-07-03T15:38:49.872Z,1.87
2017-07-03T15:41:17.320Z,5.90
2017-07-03T15:43:44.783Z,2.70
2017-07-03T15:46:12.228Z,3.10
2017-07-03T15:48:39.671Z,2.10
2017-07-03T15:51:07.110Z,2.20
2017-07-03T15:53:34.560Z,1.90
2017-07-03T15:56:01.999Z,2.20
2017-07-03T15:58:29.467Z,4.57
2017-07-03T16:00:56.903Z,2.23
2017-07-03T16:03:24.359Z,2.20
2017-07-03T16:05:52.583Z,2.40
2017-07-03T16:08:20.600Z,2.60
2017-07-03T16:10:48.818Z,2.63
2017-07-03T16:13:16.287Z,3.50
2017-07-03T16:15:43.731Z,2.60
2017-07-03T16:18:11.196Z,2.43
2017-07-03T16:20:38.652Z,2.00
2017-07-03T16:23:06.109Z,1.60
2017-07-03T16:25:33.556Z,2.00
2017-07-03T16:28:00.996Z,1.90
2017-07-03T16:30:28.451Z,2.10
2017-07-03T16:32:55.910Z,2.60
2017-07-03T16:35:23.355Z,2.00
2017-07-03T16:37:50.799Z,2.87
2017-07-03T16:46:07.129Z,2.13
2017-07-03T16:48:34.576Z,1.70
2017-07-03T16:51:02.024Z,2.13
2017-07-03T16:53:29.463Z,2.10
2017-07-03T16:55:56.929Z,3.47
2017-07-03T16:58:24.372Z,2.60
2017-07-03T17:00:51.829Z,2.13
2017-07-03T17:03:19.277Z,2.23
2017-07-03T17:05:46.752Z,1.90
2017-07-03T17:08:14.200Z,1.80
2017-07-03T17:10:41.645Z,2.10
2017-07-03T17:13:09.105Z,2.23
2017-07-03T17:15:36.542Z,1.80
2017-07-03T17:18:04.001Z,3.70
2017-07-03T17:20:31.435Z,1.80
2017-07-03T17:22:59.663Z,2.67
2017-07-03T17:25:27.101Z,2.17
2017-07-03T17:27:54.559Z,1.67
2017-07-03T17:30:22.003Z,1.80
2017-07-03T17:32:49.473Z,3.07
2017-07-03T17:35:16.910Z,1.80
2017-07-03T17:37:44.360Z,1.83
2017-07-03T17:40:11.796Z,3.27
2017-07-03T17:42:40.018Z,2.73
2017-07-03T17:45:07.459Z,1.60
2017-07-03T17:47:34.917Z,2.00
2017-07-03T17:50:02.362Z,2.57
2017-07-03T17:52:29.807Z,3.20
2017-07-03T17:54:58.015Z,1.93
2017-07-03T17:57:25.467Z,1.80
2017-07-03T17:59:52.908Z,2.00
2017-07-03T18:02:20.365Z,1.70
2017-07-03T18:04:47.799Z,2.17
2017-07-03T18:07:16.047Z,1.73
2017-07-03T18:09:43.484Z,2.30
2017-07-03T18:12:10.930Z,2.40
2017-07-03T18:14:38.384Z,2.07
2017-07-03T18:17:05.832Z,2.30
2017-07-03T18:19:33.279Z,1.70
2017-07-03T18:22:00.727Z,1.40
2017-07-03T18:24:28.947Z,1.30
2017-07-03T18:26:56.393Z,2.40
2017-07-03T18:29:23.853Z,1.40
2017-07-03T18:31:51.290Z,1.57
2017-07-03T18:34:18.739Z,1.60
2017-07-03T18:36:46.183Z,2.80
2017-07-03T18:39:14.449Z,4.30
2017-07-03T18:41:41.889Z,1.47
2017-07-03T18:44:09.332Z,1.50
2017-07-03T18:46:36.776Z,1.70
2017-07-03T18:49:04.241Z,1.37
2017-07-03T18:51:31.693Z,1.80
2017-07-03T18:53:59.142Z,2.43
2017-07-03T18:56:26.577Z,2.77
2017-07-03T18:58:54.023Z,1.70
2017-07-03T19:01:21.479Z,1.53
2017-07-03T19:03:48.911Z,2.00
2017-07-03T19:09:27.623Z,1.93
2017-07-03T19:11:55.060Z,2.00
2017-07-03T19:14:22.533Z,3.50
2017-07-03T19:16:49.976Z,1.60
2017-07-03T19:19:17.419Z,1.70
2017-07-03T19:21:44.873Z,1.77
2017-07-03T19:24:12.311Z,2.00
2017-07-03T19:26:40.532Z,1.60
2017-07-03T19:29:07.982Z,1.60
2017-07-03T19:31:35.438Z,2.53
2017-07-03T19:34:02.880Z,2.80
2017-07-03T19:36:30.341Z,2.30
2017-07-03T19:38:57.780Z,1.77
2017-07-03T19:41:45.665Z,1.70
2017-07-03T19:44:13.109Z,2.53
2017-07-03T19:46:40.570Z,5.10
2017-07-03T19:49:08.009Z,2.00
2017-07-03T19:51:35.443Z,1.30
2017-07-03T19:54:02.905Z,2.50
2017-07-03T19:56:30.365Z,2.20
2017-07-03T19:58:57.816Z,1.70
2017-07-03T20:01:25.256Z,3.03
2017-07-03T20:03:53.473Z,2.40
2017-07-03T20:06:20.915Z,2.10
2017-07-03T20:08:48.368Z,2.47
2017-07-03T20:11:15.808Z,2.10
2017-07-03T20:13:43.259Z,2.30
2017-07-03T20:16:11.459Z,5.20
2017-07-03T20:18:38.925Z,1.77
2017-07-03T20:21:06.355Z,2.90
2017-07-03T20:23:33.813Z,3.13
2017-07-03T20:26:01.258Z,1.87
2017-07-03T20:28:29.470Z,2.60
2017-07-03T20:30:56.907Z,2.03
2017-07-03T20:33:24.356Z,2.20
2017-07-03T20:35:51.800Z,2.10
2017-07-03T20:38:19.288Z,3.00
2017-07-03T20:43:43.380Z,2.33
2017-07-03T20:46:10.815Z,2.10
2017-07-03T20:48:39.043Z,1.87
2017-07-03T20:51:06.492Z,2.07
2017-07-03T20:53:33.964Z,2.40
2017-07-03T20:56:01.404Z,2.07
2017-07-03T20:58:28.853Z,1.80
2017-07-03T21:00:56.313Z,1.90
2017-07-03T21:03:23.751Z,2.00
2017-07-03T21:05:51.199Z,1.70
2017-07-03T21:08:18.639Z,1.77
2017-07-03T21:10:46.088Z,2.17
2017-07-03T21:13:14.295Z,1.90
2017-07-03T21:15:41.747Z,2.40
2017-07-03T21:18:09.188Z,2.87
2017-07-03T21:20:37.411Z,4.00
2017-07-03T21:23:04.856Z,2.23
2017-07-03T21:25:32.314Z,1.90
2017-07-03T21:27:59.751Z,1.90
2017-07-03T21:30:27.228Z,2.63
2017-07-03T21:32:54.672Z,2.30
2017-07-03T21:35:22.116Z,1.60
2017-07-03T21:37:49.564Z,6.60
2017-07-03T21:40:17.775Z,1.80
2017-07-03T21:42:45.231Z,2.90
2017-07-03T21:45:12.686Z,4.73
2017-07-03T21:47:40.142Z,3.10
2017-07-03T21:50:07.583Z,2.90
2017-07-03T21:52:35.032Z,3.53
2017-07-03T21:55:02.476Z,2.10
2017-07-03T21:57:30.695Z,2.10
2017-07-03T21:59:58.136Z,1.70
2017-07-03T22:02:25.597Z,3.10
2017-07-03T22:04:53.035Z,1.70
2017-07-03T22:07:20.492Z,1.73
2017-07-03T22:09:47.938Z,1.60
2017-07-03T22:12:16.142Z,2.00
2017-07-03T22:14:43.605Z,1.70
2017-07-03T22:17:11.059Z,2.87
2017-07-03T22:19:38.507Z,1.90
2017-07-03T22:22:05.948Z,2.60
2017-07-03T22:24:33.395Z,3.70
2017-07-03T22:27:01.604Z,1.30
2017-07-03T22:29:29.062Z,1.43
2017-07-03T22:31:56.508Z,1.50
2017-07-03T22:34:23.959Z,1.60
2017-07-03T22:36:51.472Z,1.57
2017-07-03T22:39:18.931Z,1.50
2017-07-03T22:41:46.367Z,2.10
2017-07-03T22:44:13.837Z,1.97
2017-07-03T22:46:41.277Z,1.27
2017-07-03T22:49:08.719Z,1.53
2017-07-03T22:51:36.173Z,1.73
2017-07-03T22:54:03.611Z,2.40
2017-07-03T22:56:31.063Z,1.20
2017-07-03T22:58:58.512Z,1.13
2017-07-03T23:01:26.737Z,1.53
2017-07-03T23:03:54.184Z,1.43
2017-07-03T23:06:21.636Z,2.03
2017-07-03T23:08:49.080Z,1.43
2017-07-03T23:11:16.531Z,3.80
2017-07-03T23:13:43.971Z,2.03
2017-07-03T23:16:12.195Z,1.50
2017-07-03T23:18:39.644Z,2.43
2017-07-03T23:21:07.120Z,2.27
2017-07-03T23:23:34.563Z,2.30
2017-07-03T23:26:02.005Z,3.00
2017-07-03T23:28:29.463Z,1.40
2017-07-03T23:30:56.903Z,1.50
2017-07-03T23:33:24.360Z,1.70
2017-07-03T23:35:51.791Z,1.40
2017-07-03T23:38:19.244Z,1.40
2017-07-03T23:40:46.689Z,2.03
2017-07-03T23:43:14.137Z,1.53
2017-07-03T23:45:41.571Z,1.60
2017-07-03T23:48:09.031Z,1.53
2017-07-03T23:50:36.479Z,1.70
2017-07-03T23:53:03.919Z,2.20
2017-07-03T23:55:31.367Z,1.50
2017-07-03T23:57:58.807Z,1.67
